sensor_id;sensor_type;location;lat;lon;timestamp;P1;durP1;ratioP1;P2;durP2;ratioP2
5587;SDS011;2816;49.778;9.986;2023-02-28T00:01:06;4.20;;;3.50;;
5587;SDS011;2816;49.778;9.986;2023-02-28T00:03:33;7.73;;;3.90;;
5587;SDS011;2816;49.778;9.986;2023-02-28T00:06:01;5.10;;;3.30;;
5587;SDS011;2816;49.778;9.986;2023-02-28T00:08:28;5.23;;;3.63;;
5587;SDS011;2816;49.778;9.986;2023-02-28T00:11:00;4.80;;;3.67;;
5587;SDS011;2816;49.778;9.986;2023-02-28T00:13:28;7.90;;;4.00;;
5587;SDS011;2816;49.778;9.986;2023-02-28T00:15:58;5.07;;;3.83;;
5587;SDS011;2816;49.778;9.986;2023-02-28T00:18:26;3.60;;;3.30;;
5587;SDS011;2816;49.778;9.986;2023-02-28T00:20:53;3.90;;;3.30;;
5587;SDS011;2816;49.778;9.986;2023-02-28T00:23:20;4.00;;;3.60;;
5587;SDS011;2816;49.778;9.986;2023-02-28T00:25:47;5.70;;;3.50;;
5587;SDS011;2816;49.778;9.986;2023-02-28T00:28:16;4.30;;;3.53;;
5587;SDS011;2816;49.778;9.986;2023-02-28T00:30:43;3.60;;;3.30;;
5587;SDS011;2816;49.778;9.986;2023-02-28T00:33:10;5.20;;;3.87;;
5587;SDS011;2816;49.778;9.986;2023-02-28T00:35:37;3.80;;;3.50;;
5587;SDS011;2816;49.778;9.986;2023-02-28T00:38:04;5.20;;;3.40;;
5587;SDS011;2816;49.778;9.986;2023-02-28T00:40:31;5.93;;;4.30;;
5587;SDS011;2816;49.778;9.986;2023-02-28T00:42:58;4.63;;;3.30;;
5587;SDS011;2816;49.778;9.986;2023-02-28T00:45:27;5.37;;;3.53;;
5587;SDS011;2816;49.778;9.986;2023-02-28T00:47:54;4.10;;;3.70;;
5587;SDS011;2816;49.778;9.986;2023-02-28T00:50:20;4.03;;;3.30;;
5587;SDS011;2816;49.778;9.986;2023-02-28T00:52:48;6.20;;;3.53;;
5587;SDS011;2816;49.778;9.986;2023-02-28T00:55:15;3.63;;;3.33;;
5587;SDS011;2816;49.778;9.986;2023-02-28T00:57:41;4.93;;;3.53;;
5587;SDS011;2816;49.778;9.986;2023-02-28T01:00:09;4.00;;;3.40;;
5587;SDS011;2816;49.778;9.986;2023-02-28T01:02:38;4.50;;;3.50;;
5587;SDS011;2816;49.778;9.986;2023-02-28T01:05:05;4.40;;;3.57;;
5587;SDS011;2816;49.778;9.986;2023-02-28T01:07:33;3.40;;;3.10;;
5587;SDS011;2816;49.778;9.986;2023-02-28T01:10:00;4.10;;;3.73;;
5587;SDS011;2816;49.778;9.986;2023-02-28T01:12:27;3.50;;;3.20;;
5587;SDS011;2816;49.778;9.986;2023-02-28T01:14:53;3.60;;;3.20;;
5587;SDS011;2816;49.778;9.986;2023-02-28T01:17:20;4.33;;;3.60;;
5587;SDS011;2816;49.778;9.986;2023-02-28T01:19:49;5.73;;;4.00;;
5587;SDS011;2816;49.778;9.986;2023-02-28T01:22:15;5.40;;;3.77;;
5587;SDS011;2816;49.778;9.986;2023-02-28T01:24:42;3.93;;;3.60;;
5587;SDS011;2816;49.778;9.986;2023-02-28T01:27:09;4.53;;;3.57;;
5587;SDS011;2816;49.778;9.986;2023-02-28T01:29:36;5.03;;;3.60;;
5587;SDS011;2816;49.778;9.986;2023-02-28T01:32:03;8.13;;;3.93;;
5587;SDS011;2816;49.778;9.986;2023-02-28T01:34:30;4.47;;;3.70;;
5587;SDS011;2816;49.778;9.986;2023-02-28T01:36:59;5.63;;;4.27;;
5587;SDS011;2816;49.778;9.986;2023-02-28T01:39:26;3.47;;;3.17;;
5587;SDS011;2816;49.778;9.986;2023-02-28T01:41:53;4.73;;;3.90;;
5587;SDS011;2816;49.778;9.986;2023-02-28T01:47:24;9.30;;;3.57;;
5587;SDS011;2816;49.778;9.986;2023-02-28T01:49:54;5.47;;;3.73;;
5587;SDS011;2816;49.778;9.986;2023-02-28T01:52:22;6.00;;;3.80;;
5587;SDS011;2816;49.778;9.986;2023-02-28T01:54:51;5.27;;;4.00;;
5587;SDS011;2816;49.778;9.986;2023-02-28T01:57:21;3.67;;;3.37;;
5587;SDS011;2816;49.778;9.986;2023-02-28T01:59:54;4.67;;;3.70;;
5587;SDS011;2816;49.778;9.986;2023-02-28T02:02:28;6.40;;;3.83;;
5587;SDS011;2816;49.778;9.986;2023-02-28T02:04:56;4.70;;;4.00;;
5587;SDS011;2816;49.778;9.986;2023-02-28T02:07:31;6.23;;;4.00;;
5587;SDS011;2816;49.778;9.986;2023-02-28T02:10:02;3.70;;;3.30;;
5587;SDS011;2816;49.778;9.986;2023-02-28T02:12:36;4.70;;;3.97;;
5587;SDS011;2816;49.778;9.986;2023-02-28T02:15:22;4.77;;;3.50;;
5587;SDS011;2816;49.778;9.986;2023-02-28T02:17:56;4.50;;;3.53;;
5587;SDS011;2816;49.778;9.986;2023-02-28T02:23:33;4.63;;;4.20;;
5587;SDS011;2816;49.778;9.986;2023-02-28T02:26:27;5.73;;;3.90;;
5587;SDS011;2816;49.778;9.986;2023-02-28T02:32:36;5.43;;;3.53;;
5587;SDS011;2816;49.778;9.986;2023-02-28T02:35:18;4.20;;;3.87;;
5587;SDS011;2816;49.778;9.986;2023-02-28T02:37:52;5.00;;;3.50;;
5587;SDS011;2816;49.778;9.986;2023-02-28T02:40:27;4.17;;;3.60;;
5587;SDS011;2816;49.778;9.986;2023-02-28T02:43:02;6.20;;;3.83;;
5587;SDS011;2816;49.778;9.986;2023-02-28T02:45:38;4.50;;;3.93;;
5587;SDS011;2816;49.778;9.986;2023-02-28T02:48:09;4.50;;;3.93;;
5587;SDS011;2816;49.778;9.986;2023-02-28T02:50:43;5.00;;;3.83;;
5587;SDS011;2816;49.778;9.986;2023-02-28T02:53:12;4.40;;;3.33;;
5587;SDS011;2816;49.778;9.986;2023-02-28T02:55:44;4.73;;;3.40;;
5587;SDS011;2816;49.778;9.986;2023-02-28T02:58:18;5.40;;;3.87;;
5587;SDS011;2816;49.778;9.986;2023-02-28T03:00:50;4.17;;;3.70;;
5587;SDS011;2816;49.778;9.986;2023-02-28T03:03:19;4.33;;;3.63;;
5587;SDS011;2816;49.778;9.986;2023-02-28T03:05:55;9.00;;;4.23;;
5587;SDS011;2816;49.778;9.986;2023-02-28T03:08:24;4.53;;;4.00;;
5587;SDS011;2816;49.778;9.986;2023-02-28T03:10:52;4.70;;;3.80;;
5587;SDS011;2816;49.778;9.986;2023-02-28T03:13:28;6.90;;;4.30;;
5587;SDS011;2816;49.778;9.986;2023-02-28T03:16:27;6.10;;;3.90;;
5587;SDS011;2816;49.778;9.986;2023-02-28T03:19:02;5.10;;;3.50;;
5587;SDS011;2816;49.778;9.986;2023-02-28T03:21:46;7.60;;;4.50;;
5587;SDS011;2816;49.778;9.986;2023-02-28T03:24:23;6.70;;;4.40;;
5587;SDS011;2816;49.778;9.986;2023-02-28T03:26:55;6.37;;;4.17;;
5587;SDS011;2816;49.778;9.986;2023-02-28T03:29:32;5.00;;;4.23;;
5587;SDS011;2816;49.778;9.986;2023-02-28T03:32:02;6.80;;;4.60;;
5587;SDS011;2816;49.778;9.986;2023-02-28T03:34:37;5.67;;;3.97;;
5587;SDS011;2816;49.778;9.986;2023-02-28T03:37:10;6.60;;;3.80;;
5587;SDS011;2816;49.778;9.986;2023-02-28T03:39:41;4.70;;;3.97;;
5587;SDS011;2816;49.778;9.986;2023-02-28T03:42:12;5.63;;;4.33;;
5587;SDS011;2816;49.778;9.986;2023-02-28T03:44:42;5.70;;;4.33;;
5587;SDS011;2816;49.778;9.986;2023-02-28T03:47:12;4.67;;;4.10;;
5587;SDS011;2816;49.778;9.986;2023-02-28T03:49:44;4.83;;;4.10;;
5587;SDS011;2816;49.778;9.986;2023-02-28T03:52:17;6.23;;;3.93;;
5587;SDS011;2816;49.778;9.986;2023-02-28T03:54:47;5.27;;;4.50;;
5587;SDS011;2816;49.778;9.986;2023-02-28T03:57:18;5.37;;;4.03;;
5587;SDS011;2816;49.778;9.986;2023-02-28T03:59:54;5.60;;;4.00;;
5587;SDS011;2816;49.778;9.986;2023-02-28T04:02:25;7.60;;;4.30;;
5587;SDS011;2816;49.778;9.986;2023-02-28T04:04:53;8.50;;;4.37;;
5587;SDS011;2816;49.778;9.986;2023-02-28T04:07:22;4.27;;;3.50;;
5587;SDS011;2816;49.778;9.986;2023-02-28T04:09:48;4.70;;;3.53;;
5587;SDS011;2816;49.778;9.986;2023-02-28T04:12:15;7.47;;;3.80;;
5587;SDS011;2816;49.778;9.986;2023-02-28T04:14:42;6.40;;;4.70;;
5587;SDS011;2816;49.778;9.986;2023-02-28T04:17:09;5.67;;;4.40;;
5587;SDS011;2816;49.778;9.986;2023-02-28T04:19:36;5.10;;;4.07;;
5587;SDS011;2816;49.778;9.986;2023-02-28T04:22:03;5.67;;;3.90;;
5587;SDS011;2816;49.778;9.986;2023-02-28T04:24:31;4.93;;;4.30;;
5587;SDS011;2816;49.778;9.986;2023-02-28T04:26:58;4.93;;;3.70;;
5587;SDS011;2816;49.778;9.986;2023-02-28T04:29:26;6.93;;;4.30;;
5587;SDS011;2816;49.778;9.986;2023-02-28T04:31:54;8.10;;;4.90;;
5587;SDS011;2816;49.778;9.986;2023-02-28T04:34:22;4.80;;;3.90;;
5587;SDS011;2816;49.778;9.986;2023-02-28T04:36:50;6.00;;;3.40;;
5587;SDS011;2816;49.778;9.986;2023-02-28T04:39:19;4.90;;;4.13;;
5587;SDS011;2816;49.778;9.986;2023-02-28T04:41:48;6.03;;;4.93;;
5587;SDS011;2816;49.778;9.986;2023-02-28T04:44:15;6.40;;;4.47;;
5587;SDS011;2816;49.778;9.986;2023-02-28T04:46:42;5.40;;;4.10;;
5587;SDS011;2816;49.778;9.986;2023-02-28T04:49:09;4.47;;;4.00;;
5587;SDS011;2816;49.778;9.986;2023-02-28T04:51:38;7.00;;;4.60;;
5587;SDS011;2816;49.778;9.986;2023-02-28T04:54:05;4.97;;;4.17;;
5587;SDS011;2816;49.778;9.986;2023-02-28T04:56:32;7.33;;;4.50;;
5587;SDS011;2816;49.778;9.986;2023-02-28T04:59:00;5.13;;;3.97;;
5587;SDS011;2816;49.778;9.986;2023-02-28T05:01:28;4.83;;;3.70;;
5587;SDS011;2816;49.778;9.986;2023-02-28T05:03:57;7.47;;;4.70;;
5587;SDS011;2816;49.778;9.986;2023-02-28T05:06:26;6.80;;;3.90;;
5587;SDS011;2816;49.778;9.986;2023-02-28T05:08:55;5.33;;;4.40;;
5587;SDS011;2816;49.778;9.986;2023-02-28T05:11:23;5.53;;;4.27;;
5587;SDS011;2816;49.778;9.986;2023-02-28T05:13:52;5.97;;;4.57;;
5587;SDS011;2816;49.778;9.986;2023-02-28T05:16:21;5.20;;;4.00;;
5587;SDS011;2816;49.778;9.986;2023-02-28T05:18:48;5.10;;;4.40;;
5587;SDS011;2816;49.778;9.986;2023-02-28T05:21:23;3.80;;;3.50;;
5587;SDS011;2816;49.778;9.986;2023-02-28T05:23:52;7.40;;;4.57;;
5587;SDS011;2816;49.778;9.986;2023-02-28T05:26:19;10.57;;;4.47;;
5587;SDS011;2816;49.778;9.986;2023-02-28T05:28:46;6.83;;;4.10;;
5587;SDS011;2816;49.778;9.986;2023-02-28T05:31:14;6.30;;;4.57;;
5587;SDS011;2816;49.778;9.986;2023-02-28T05:33:42;5.60;;;4.40;;
5587;SDS011;2816;49.778;9.986;2023-02-28T05:36:09;5.60;;;4.40;;
5587;SDS011;2816;49.778;9.986;2023-02-28T05:38:36;5.57;;;4.23;;
5587;SDS011;2816;49.778;9.986;2023-02-28T05:41:06;4.63;;;4.00;;
5587;SDS011;2816;49.778;9.986;2023-02-28T05:43:34;5.73;;;4.00;;
5587;SDS011;2816;49.778;9.986;2023-02-28T05:46:02;6.23;;;5.40;;
5587;SDS011;2816;49.778;9.986;2023-02-28T05:48:30;4.83;;;3.77;;
5587;SDS011;2816;49.778;9.986;2023-02-28T05:50:59;6.47;;;3.87;;
5587;SDS011;2816;49.778;9.986;2023-02-28T05:53:27;5.40;;;4.00;;
5587;SDS011;2816;49.778;9.986;2023-02-28T05:55:55;6.97;;;3.40;;
5587;SDS011;2816;49.778;9.986;2023-02-28T05:58:21;7.50;;;4.53;;
5587;SDS011;2816;49.778;9.986;2023-02-28T06:00:50;9.87;;;4.30;;
5587;SDS011;2816;49.778;9.986;2023-02-28T06:03:17;8.83;;;5.43;;
5587;SDS011;2816;49.778;9.986;2023-02-28T06:05:44;8.97;;;4.10;;
5587;SDS011;2816;49.778;9.986;2023-02-28T06:08:12;4.90;;;4.10;;
5587;SDS011;2816;49.778;9.986;2023-02-28T06:10:39;7.30;;;4.57;;
5587;SDS011;2816;49.778;9.986;2023-02-28T06:13:06;5.47;;;4.17;;
5587;SDS011;2816;49.778;9.986;2023-02-28T06:15:33;7.50;;;4.10;;
5587;SDS011;2816;49.778;9.986;2023-02-28T06:18:00;4.33;;;3.93;;
5587;SDS011;2816;49.778;9.986;2023-02-28T06:20:27;5.73;;;3.67;;
5587;SDS011;2816;49.778;9.986;2023-02-28T06:22:54;9.93;;;3.80;;
5587;SDS011;2816;49.778;9.986;2023-02-28T06:25:25;7.80;;;4.47;;
5587;SDS011;2816;49.778;9.986;2023-02-28T06:27:52;7.17;;;4.10;;
5587;SDS011;2816;49.778;9.986;2023-02-28T06:30:20;5.40;;;3.40;;
5587;SDS011;2816;49.778;9.986;2023-02-28T06:32:50;4.43;;;3.03;;
5587;SDS011;2816;49.778;9.986;2023-02-28T06:35:17;4.00;;;3.50;;
5587;SDS011;2816;49.778;9.986;2023-02-28T06:37:44;5.07;;;3.97;;
5587;SDS011;2816;49.778;9.986;2023-02-28T06:40:12;4.10;;;3.70;;
5587;SDS011;2816;49.778;9.986;2023-02-28T06:42:40;4.07;;;3.67;;
5587;SDS011;2816;49.778;9.986;2023-02-28T06:45:08;5.40;;;3.40;;
5587;SDS011;2816;49.778;9.986;2023-02-28T06:47:35;4.70;;;3.57;;
5587;SDS011;2816;49.778;9.986;2023-02-28T06:50:03;3.83;;;3.30;;
5587;SDS011;2816;49.778;9.986;2023-02-28T06:52:31;6.10;;;3.93;;
5587;SDS011;2816;49.778;9.986;2023-02-28T06:55:01;4.97;;;3.67;;
5587;SDS011;2816;49.778;9.986;2023-02-28T06:57:28;3.90;;;3.20;;
5587;SDS011;2816;49.778;9.986;2023-02-28T06:59:58;4.43;;;3.93;;
5587;SDS011;2816;49.778;9.986;2023-02-28T07:02:26;5.90;;;3.30;;
5587;SDS011;2816;49.778;9.986;2023-02-28T07:04:53;4.00;;;3.43;;
5587;SDS011;2816;49.778;9.986;2023-02-28T07:07:20;4.40;;;3.53;;
5587;SDS011;2816;49.778;9.986;2023-02-28T07:09:47;9.37;;;3.73;;
5587;SDS011;2816;49.778;9.986;2023-02-28T07:12:15;4.77;;;3.30;;
5587;SDS011;2816;49.778;9.986;2023-02-28T07:14:42;5.10;;;3.93;;
5587;SDS011;2816;49.778;9.986;2023-02-28T07:17:10;8.23;;;3.90;;
5587;SDS011;2816;49.778;9.986;2023-02-28T07:19:37;3.53;;;3.20;;
5587;SDS011;2816;49.778;9.986;2023-02-28T07:22:04;10.03;;;3.70;;
5587;SDS011;2816;49.778;9.986;2023-02-28T07:24:32;6.70;;;4.50;;
5587;SDS011;2816;49.778;9.986;2023-02-28T07:26:59;5.03;;;3.30;;
5587;SDS011;2816;49.778;9.986;2023-02-28T07:29:26;3.73;;;3.43;;
5587;SDS011;2816;49.778;9.986;2023-02-28T07:31:53;3.97;;;3.57;;
5587;SDS011;2816;49.778;9.986;2023-02-28T07:34:22;5.90;;;3.70;;
5587;SDS011;2816;49.778;9.986;2023-02-28T07:36:49;5.87;;;4.10;;
5587;SDS011;2816;49.778;9.986;2023-02-28T07:39:19;9.03;;;3.70;;
5587;SDS011;2816;49.778;9.986;2023-02-28T07:41:46;11.47;;;4.40;;
5587;SDS011;2816;49.778;9.986;2023-02-28T07:44:13;11.20;;;4.30;;
5587;SDS011;2816;49.778;9.986;2023-02-28T07:46:40;4.50;;;3.40;;
5587;SDS011;2816;49.778;9.986;2023-02-28T07:49:07;6.27;;;4.10;;
5587;SDS011;2816;49.778;9.986;2023-02-28T07:51:35;7.83;;;4.80;;
5587;SDS011;2816;49.778;9.986;2023-02-28T07:54:02;5.30;;;4.40;;
5587;SDS011;2816;49.778;9.986;2023-02-28T07:56:29;7.40;;;4.73;;
5587;SDS011;2816;49.778;9.986;2023-02-28T07:58:56;4.67;;;3.00;;
5587;SDS011;2816;49.778;9.986;2023-02-28T08:01:23;7.17;;;4.40;;
5587;SDS011;2816;49.778;9.986;2023-02-28T08:03:50;8.70;;;4.87;;
5587;SDS011;2816;49.778;9.986;2023-02-28T08:06:20;9.73;;;4.60;;
5587;SDS011;2816;49.778;9.986;2023-02-28T08:08:50;9.07;;;5.70;;
5587;SDS011;2816;49.778;9.986;2023-02-28T08:11:17;6.20;;;4.77;;
5587;SDS011;2816;49.778;9.986;2023-02-28T08:13:44;6.13;;;5.00;;
5587;SDS011;2816;49.778;9.986;2023-02-28T08:16:12;7.33;;;5.00;;
5587;SDS011;2816;49.778;9.986;2023-02-28T08:18:42;9.43;;;5.17;;
5587;SDS011;2816;49.778;9.986;2023-02-28T08:21:09;7.60;;;5.60;;
5587;SDS011;2816;49.778;9.986;2023-02-28T08:23:36;8.60;;;5.00;;
5587;SDS011;2816;49.778;9.986;2023-02-28T08:26:05;9.03;;;5.70;;
5587;SDS011;2816;49.778;9.986;2023-02-28T08:28:32;14.63;;;5.80;;
5587;SDS011;2816;49.778;9.986;2023-02-28T08:30:59;10.93;;;6.30;;
5587;SDS011;2816;49.778;9.986;2023-02-28T08:33:27;7.27;;;5.20;;
5587;SDS011;2816;49.778;9.986;2023-02-28T08:35:54;10.70;;;5.10;;
5587;SDS011;2816;49.778;9.986;2023-02-28T08:38:21;13.90;;;5.43;;
5587;SDS011;2816;49.778;9.986;2023-02-28T08:40:48;8.23;;;5.00;;
5587;SDS011;2816;49.778;9.986;2023-02-28T08:43:17;11.20;;;5.90;;
5587;SDS011;2816;49.778;9.986;2023-02-28T08:45:43;7.70;;;4.30;;
5587;SDS011;2816;49.778;9.986;2023-02-28T08:48:10;6.87;;;5.20;;
5587;SDS011;2816;49.778;9.986;2023-02-28T08:50:38;5.70;;;4.13;;
5587;SDS011;2816;49.778;9.986;2023-02-28T08:53:05;7.33;;;5.70;;
5587;SDS011;2816;49.778;9.986;2023-02-28T08:55:32;7.43;;;5.10;;
5587;SDS011;2816;49.778;9.986;2023-02-28T08:57:59;8.83;;;6.37;;
5587;SDS011;2816;49.778;9.986;2023-02-28T09:00:28;8.63;;;6.03;;
5587;SDS011;2816;49.778;9.986;2023-02-28T09:02:54;10.10;;;6.97;;
5587;SDS011;2816;49.778;9.986;2023-02-28T09:05:22;9.50;;;5.93;;
5587;SDS011;2816;49.778;9.986;2023-02-28T09:07:49;14.37;;;6.30;;
5587;SDS011;2816;49.778;9.986;2023-02-28T09:10:16;11.13;;;5.67;;
5587;SDS011;2816;49.778;9.986;2023-02-28T09:12:43;7.30;;;4.97;;
5587;SDS011;2816;49.778;9.986;2023-02-28T09:15:11;6.70;;;5.93;;
5587;SDS011;2816;49.778;9.986;2023-02-28T09:17:40;7.53;;;5.30;;
5587;SDS011;2816;49.778;9.986;2023-02-28T09:20:07;13.40;;;5.63;;
5587;SDS011;2816;49.778;9.986;2023-02-28T09:22:35;10.13;;;5.60;;
5587;SDS011;2816;49.778;9.986;2023-02-28T09:25:02;10.30;;;6.27;;
5587;SDS011;2816;49.778;9.986;2023-02-28T09:27:29;7.90;;;5.70;;
5587;SDS011;2816;49.778;9.986;2023-02-28T09:29:56;7.60;;;4.80;;
5587;SDS011;2816;49.778;9.986;2023-02-28T09:32:23;8.67;;;5.67;;
5587;SDS011;2816;49.778;9.986;2023-02-28T09:34:51;8.00;;;5.50;;
5587;SDS011;2816;49.778;9.986;2023-02-28T09:37:18;7.70;;;5.17;;
5587;SDS011;2816;49.778;9.986;2023-02-28T09:39:45;7.67;;;5.80;;
5587;SDS011;2816;49.778;9.986;2023-02-28T09:42:16;7.63;;;6.10;;
5587;SDS011;2816;49.778;9.986;2023-02-28T09:44:48;11.17;;;6.17;;
5587;SDS011;2816;49.778;9.986;2023-02-28T09:47:17;10.63;;;5.40;;
5587;SDS011;2816;49.778;9.986;2023-02-28T09:49:54;9.63;;;5.40;;
5587;SDS011;2816;49.778;9.986;2023-02-28T09:52:26;7.30;;;5.20;;
5587;SDS011;2816;49.778;9.986;2023-02-28T09:54:57;8.97;;;5.80;;
5587;SDS011;2816;49.778;9.986;2023-02-28T09:57:37;8.80;;;5.43;;
5587;SDS011;2816;49.778;9.986;2023-02-28T10:00:07;7.90;;;5.30;;
5587;SDS011;2816;49.778;9.986;2023-02-28T10:05:35;8.73;;;5.07;;
5587;SDS011;2816;49.778;9.986;2023-02-28T10:08:08;8.63;;;5.07;;
5587;SDS011;2816;49.778;9.986;2023-02-28T10:10:40;7.30;;;5.90;;
5587;SDS011;2816;49.778;9.986;2023-02-28T10:13:17;7.40;;;5.40;;
5587;SDS011;2816;49.778;9.986;2023-02-28T10:15:51;7.00;;;5.70;;
5587;SDS011;2816;49.778;9.986;2023-02-28T10:18:23;7.37;;;5.33;;
5587;SDS011;2816;49.778;9.986;2023-02-28T10:20:54;7.27;;;5.43;;
5587;SDS011;2816;49.778;9.986;2023-02-28T10:23:24;10.00;;;5.00;;
5587;SDS011;2816;49.778;9.986;2023-02-28T10:25:55;9.63;;;5.63;;
5587;SDS011;2816;49.778;9.986;2023-02-28T10:28:26;7.47;;;5.37;;
5587;SDS011;2816;49.778;9.986;2023-02-28T10:30:57;8.77;;;5.20;;
5587;SDS011;2816;49.778;9.986;2023-02-28T10:33:25;6.63;;;5.20;;
5587;SDS011;2816;49.778;9.986;2023-02-28T10:35:56;7.80;;;5.90;;
5587;SDS011;2816;49.778;9.986;2023-02-28T10:38:24;8.43;;;5.37;;
5587;SDS011;2816;49.778;9.986;2023-02-28T10:41:03;8.80;;;5.83;;
5587;SDS011;2816;49.778;9.986;2023-02-28T10:43:31;10.80;;;5.20;;
5587;SDS011;2816;49.778;9.986;2023-02-28T10:45:59;7.90;;;5.70;;
5587;SDS011;2816;49.778;9.986;2023-02-28T10:48:30;6.97;;;4.57;;
5587;SDS011;2816;49.778;9.986;2023-02-28T10:51:04;14.50;;;5.97;;
5587;SDS011;2816;49.778;9.986;2023-02-28T10:53:34;6.17;;;5.07;;
5587;SDS011;2816;49.778;9.986;2023-02-28T10:56:12;8.97;;;5.73;;
5587;SDS011;2816;49.778;9.986;2023-02-28T10:58:46;7.10;;;5.70;;
5587;SDS011;2816;49.778;9.986;2023-02-28T11:01:16;8.17;;;5.47;;
5587;SDS011;2816;49.778;9.986;2023-02-28T11:03:45;10.57;;;6.77;;
5587;SDS011;2816;49.778;9.986;2023-02-28T11:06:15;8.20;;;5.57;;
5587;SDS011;2816;49.778;9.986;2023-02-28T11:08:49;7.80;;;6.13;;
5587;SDS011;2816;49.778;9.986;2023-02-28T11:11:18;13.40;;;5.17;;
5587;SDS011;2816;49.778;9.986;2023-02-28T11:13:46;6.53;;;5.37;;
5587;SDS011;2816;49.778;9.986;2023-02-28T11:16:16;8.03;;;4.87;;
5587;SDS011;2816;49.778;9.986;2023-02-28T11:18:44;7.17;;;5.40;;
5587;SDS011;2816;49.778;9.986;2023-02-28T11:21:17;12.23;;;5.77;;
5587;SDS011;2816;49.778;9.986;2023-02-28T11:23:48;7.87;;;5.97;;
5587;SDS011;2816;49.778;9.986;2023-02-28T11:29:09;9.33;;;6.37;;
5587;SDS011;2816;49.778;9.986;2023-02-28T11:31:38;12.57;;;5.93;;
5587;SDS011;2816;49.778;9.986;2023-02-28T11:36:51;6.83;;;5.80;;
5587;SDS011;2816;49.778;9.986;2023-02-28T11:39:19;9.90;;;6.10;;
5587;SDS011;2816;49.778;9.986;2023-02-28T11:41:55;7.70;;;5.77;;
5587;SDS011;2816;49.778;9.986;2023-02-28T11:44:47;7.10;;;5.13;;
5587;SDS011;2816;49.778;9.986;2023-02-28T11:47:26;7.73;;;5.83;;
5587;SDS011;2816;49.778;9.986;2023-02-28T11:50:07;11.23;;;5.13;;
5587;SDS011;2816;49.778;9.986;2023-02-28T11:52:45;8.30;;;5.53;;
5587;SDS011;2816;49.778;9.986;2023-02-28T11:55:19;7.23;;;5.00;;
5587;SDS011;2816;49.778;9.986;2023-02-28T11:57:55;5.90;;;5.13;;
5587;SDS011;2816;49.778;9.986;2023-02-28T12:00:36;8.03;;;5.67;;
5587;SDS011;2816;49.778;9.986;2023-02-28T12:03:15;13.00;;;6.10;;
5587;SDS011;2816;49.778;9.986;2023-02-28T12:05:53;8.97;;;5.50;;
5587;SDS011;2816;49.778;9.986;2023-02-28T12:08:34;13.20;;;5.53;;
5587;SDS011;2816;49.778;9.986;2023-02-28T12:11:11;7.87;;;5.40;;
5587;SDS011;2816;49.778;9.986;2023-02-28T12:13:55;6.90;;;5.07;;
5587;SDS011;2816;49.778;9.986;2023-02-28T12:16:41;7.07;;;5.40;;
5587;SDS011;2816;49.778;9.986;2023-02-28T12:19:22;7.37;;;5.53;;
5587;SDS011;2816;49.778;9.986;2023-02-28T12:21:58;6.93;;;5.40;;
5587;SDS011;2816;49.778;9.986;2023-02-28T12:24:47;12.10;;;7.33;;
5587;SDS011;2816;49.778;9.986;2023-02-28T12:27:44;10.07;;;5.70;;
5587;SDS011;2816;49.778;9.986;2023-02-28T12:30:14;7.50;;;5.37;;
5587;SDS011;2816;49.778;9.986;2023-02-28T12:32:45;7.30;;;5.67;;
5587;SDS011;2816;49.778;9.986;2023-02-28T12:35:16;7.03;;;6.10;;
5587;SDS011;2816;49.778;9.986;2023-02-28T12:37:50;8.53;;;6.27;;
5587;SDS011;2816;49.778;9.986;2023-02-28T12:40:23;11.77;;;7.03;;
5587;SDS011;2816;49.778;9.986;2023-02-28T12:42:54;10.33;;;6.77;;
5587;SDS011;2816;49.778;9.986;2023-02-28T12:45:39;20.90;;;7.33;;
5587;SDS011;2816;49.778;9.986;2023-02-28T12:48:08;23.63;;;7.70;;
5587;SDS011;2816;49.778;9.986;2023-02-28T12:50:39;7.57;;;5.60;;
5587;SDS011;2816;49.778;9.986;2023-02-28T12:53:08;9.57;;;5.97;;
5587;SDS011;2816;49.778;9.986;2023-02-28T12:55:41;8.60;;;5.50;;
5587;SDS011;2816;49.778;9.986;2023-02-28T12:58:16;10.00;;;6.93;;
5587;SDS011;2816;49.778;9.986;2023-02-28T13:00:55;8.30;;;5.47;;
5587;SDS011;2816;49.778;9.986;2023-02-28T13:04:05;8.97;;;5.07;;
5587;SDS011;2816;49.778;9.986;2023-02-28T13:07:09;9.23;;;6.20;;
5587;SDS011;2816;49.778;9.986;2023-02-28T13:10:02;9.00;;;5.33;;
5587;SDS011;2816;49.778;9.986;2023-02-28T13:12:33;7.20;;;4.60;;
5587;SDS011;2816;49.778;9.986;2023-02-28T13:15:03;8.70;;;6.17;;
5587;SDS011;2816;49.778;9.986;2023-02-28T13:17:36;10.53;;;7.30;;
5587;SDS011;2816;49.778;9.986;2023-02-28T13:20:13;7.20;;;5.83;;
5587;SDS011;2816;49.778;9.986;2023-02-28T13:22:43;12.77;;;6.40;;
5587;SDS011;2816;49.778;9.986;2023-02-28T13:31:34;7.30;;;6.10;;
5587;SDS011;2816;49.778;9.986;2023-02-28T13:34:36;7.53;;;5.47;;
5587;SDS011;2816;49.778;9.986;2023-02-28T13:40:06;7.70;;;5.53;;
5587;SDS011;2816;49.778;9.986;2023-02-28T13:42:48;6.93;;;4.60;;
5587;SDS011;2816;49.778;9.986;2023-02-28T13:45:25;9.03;;;6.30;;
5587;SDS011;2816;49.778;9.986;2023-02-28T13:47:57;11.23;;;6.20;;
5587;SDS011;2816;49.778;9.986;2023-02-28T13:50:27;15.13;;;6.53;;
5587;SDS011;2816;49.778;9.986;2023-02-28T13:53:02;9.60;;;6.43;;
5587;SDS011;2816;49.778;9.986;2023-02-28T13:55:49;10.30;;;6.33;;
5587;SDS011;2816;49.778;9.986;2023-02-28T13:58:24;9.40;;;6.57;;
5587;SDS011;2816;49.778;9.986;2023-02-28T14:01:20;8.60;;;6.53;;
5587;SDS011;2816;49.778;9.986;2023-02-28T14:04:14;11.47;;;6.90;;
5587;SDS011;2816;49.778;9.986;2023-02-28T14:07:01;8.00;;;6.13;;
5587;SDS011;2816;49.778;9.986;2023-02-28T14:09:30;12.60;;;6.27;;
5587;SDS011;2816;49.778;9.986;2023-02-28T14:14:59;9.33;;;6.10;;
5587;SDS011;2816;49.778;9.986;2023-02-28T14:17:26;10.50;;;5.73;;
5587;SDS011;2816;49.778;9.986;2023-02-28T14:19:54;7.23;;;4.80;;
5587;SDS011;2816;49.778;9.986;2023-02-28T14:25:22;12.03;;;6.53;;
5587;SDS011;2816;49.778;9.986;2023-02-28T14:27:58;11.30;;;6.10;;
5587;SDS011;2816;49.778;9.986;2023-02-28T14:33:32;8.37;;;5.87;;
5587;SDS011;2816;49.778;9.986;2023-02-28T14:36:12;10.63;;;6.50;;
5587;SDS011;2816;49.778;9.986;2023-02-28T14:38:45;8.97;;;6.37;;
5587;SDS011;2816;49.778;9.986;2023-02-28T14:41:16;9.53;;;6.33;;
5587;SDS011;2816;49.778;9.986;2023-02-28T14:43:50;13.13;;;7.30;;
5587;SDS011;2816;49.778;9.986;2023-02-28T14:46:19;6.80;;;5.40;;
5587;SDS011;2816;49.778;9.986;2023-02-28T14:48:46;10.40;;;5.97;;
5587;SDS011;2816;49.778;9.986;2023-02-28T14:51:19;7.70;;;6.17;;
5587;SDS011;2816;49.778;9.986;2023-02-28T14:53:49;10.73;;;6.03;;
5587;SDS011;2816;49.778;9.986;2023-02-28T14:56:22;9.70;;;5.37;;
5587;SDS011;2816;49.778;9.986;2023-02-28T14:58:51;8.40;;;6.27;;
5587;SDS011;2816;49.778;9.986;2023-02-28T15:01:19;9.93;;;6.10;;
5587;SDS011;2816;49.778;9.986;2023-02-28T15:03:47;10.33;;;6.67;;
5587;SDS011;2816;49.778;9.986;2023-02-28T15:06:24;11.13;;;6.13;;
5587;SDS011;2816;49.778;9.986;2023-02-28T15:09:06;10.10;;;5.60;;
5587;SDS011;2816;49.778;9.986;2023-02-28T15:11:35;10.67;;;6.93;;
5587;SDS011;2816;49.778;9.986;2023-02-28T15:14:03;11.77;;;6.67;;
5587;SDS011;2816;49.778;9.986;2023-02-28T15:16:31;8.60;;;6.03;;
5587;SDS011;2816;49.778;9.986;2023-02-28T15:19:00;8.30;;;6.10;;
5587;SDS011;2816;49.778;9.986;2023-02-28T15:21:33;13.87;;;6.20;;
5587;SDS011;2816;49.778;9.986;2023-02-28T15:24:02;10.90;;;5.90;;
5587;SDS011;2816;49.778;9.986;2023-02-28T15:26:32;9.20;;;6.73;;
5587;SDS011;2816;49.778;9.986;2023-02-28T15:29:03;8.10;;;5.60;;
5587;SDS011;2816;49.778;9.986;2023-02-28T15:31:33;9.87;;;5.93;;
5587;SDS011;2816;49.778;9.986;2023-02-28T15:34:02;10.70;;;6.00;;
5587;SDS011;2816;49.778;9.986;2023-02-28T15:36:33;10.00;;;6.10;;
5587;SDS011;2816;49.778;9.986;2023-02-28T15:39:02;8.03;;;5.80;;
5587;SDS011;2816;49.778;9.986;2023-02-28T15:41:44;15.10;;;6.30;;
5587;SDS011;2816;49.778;9.986;2023-02-28T15:44:22;9.17;;;5.73;;
5587;SDS011;2816;49.778;9.986;2023-02-28T15:46:57;14.87;;;6.97;;
5587;SDS011;2816;49.778;9.986;2023-02-28T15:49:27;7.80;;;5.33;;
5587;SDS011;2816;49.778;9.986;2023-02-28T15:51:57;10.43;;;5.90;;
5587;SDS011;2816;49.778;9.986;2023-02-28T15:54:27;10.93;;;7.10;;
5587;SDS011;2816;49.778;9.986;2023-02-28T15:56:57;10.27;;;6.20;;
5587;SDS011;2816;49.778;9.986;2023-02-28T15:59:27;13.20;;;5.63;;
5587;SDS011;2816;49.778;9.986;2023-02-28T16:02:13;17.83;;;6.63;;
5587;SDS011;2816;49.778;9.986;2023-02-28T16:04:56;10.10;;;6.10;;
5587;SDS011;2816;49.778;9.986;2023-02-28T16:07:26;11.57;;;6.73;;
5587;SDS011;2816;49.778;9.986;2023-02-28T16:09:54;10.00;;;6.40;;
5587;SDS011;2816;49.778;9.986;2023-02-28T16:12:23;9.80;;;6.20;;